Time;durP1;ratioP1;P1;durP2;ratioP2;P2;SDS_P1;SDS_P2;PMS_P1;PMS_P2;Temp;Humidity;BMP_temperature;BMP_pressure;BME280_temperature;BME280_humidity;BME280_pressure;Samples;Min_cycle;Max_cycle;Signal;HPM_P1;HPM_P2
2022/04/23 00:00:07;;;;;;;;;;;;;;;9.50;68.51;95497.03;30001;983;1876;-61
2022/04/23 00:00:38;;;;;;;;;;;;;;;9.50;68.59;95502.44;30001;983;1876;-60
2022/04/23 00:01:11;;;;;;;;;;;;;;;9.49;68.66;95501.66;30001;983;1876;-61
2022/04/23 00:01:43;;;;;;;;;;;;;;;9.50;68.64;95503.25;30001;983;1876;-60
2022/04/23 00:02:13;;;;;;;;;;;;;;;9.51;68.39;95501.34;30001;986;1872;-61
2022/04/23 00:02:45;;;;;;;;;;;;;;;9.51;68.35;95498.63;30001;987;1876;-60
2022/04/23 00:03:17;;;;;;;;;;;;;;;9.52;68.70;95502.94;30001;983;1876;-59
2022/04/23 00:03:48;;;;;;;;;;;;;;;9.51;68.91;95504.03;30001;983;1855;-62
2022/04/23 00:04:19;;;;;;;;;;;;;;;9.49;68.56;95504.37;30001;982;1872;-60
2022/04/23 00:04:51;;;;;;;;;;;;;;;9.48;68.54;95504.69;30001;986;1854;-61
2022/04/23 00:05:22;;;;;;;;;;;;;;;9.48;68.29;95499.25;30001;982;1876;-60
2022/04/23 00:05:53;;;;;;;;;;;;;;;9.48;68.59;95510.09;30001;986;1876;-61
2022/04/23 00:06:24;;;;;;;;;;;;;;;9.48;68.44;95505.47;30001;982;1881;-60
2022/04/23 00:06:55;;;;;;;;;;;;;;;9.48;68.56;95504.69;30001;982;1881;-61
2022/04/23 00:07:26;;;;;;;;;;;;;;;9.49;68.54;95495.44;30001;983;1880;-62
2022/04/23 00:07:57;;;;;;;;;;;;;;;9.49;68.49;95498.16;30001;983;1880;-60
2022/04/23 00:08:28;;;;;;;;;;;;;;;9.50;68.57;95497.03;30001;983;1880;-61
2022/04/23 00:09:00;;;;;;;;;;;;;;;9.52;68.11;95497.50;30001;983;1858;-60
2022/04/23 00:09:32;;;;;;;;;;;;;;;9.52;68.24;95498.31;30001;983;1876;-61
2022/04/23 00:10:03;;;;;;;;;;;;;;;9.53;68.27;95496.41;30001;983;1880;-60
2022/04/23 00:10:35;;;;;;;;;;;;;;;9.54;68.88;95498.00;30001;983;1881;-60
2022/04/23 00:11:08;;;;;;;;;;;;;;;9.54;68.41;95489.87;30001;983;1881;-61
2022/04/23 00:11:40;;;;;;;;;;;;;;;9.55;68.74;95492.25;30001;982;1881;-62
2022/04/23 00:12:11;;;;;;;;;;;;;;;9.55;68.42;95491.47;30001;982;1881;-63
2022/04/23 00:12:46;;;;;;;;;;;;;;;9.56;69.16;95495.75;30001;982;1881;-61
2022/04/23 00:13:17;;;;;;;;;;;;;;;9.55;69.23;95491.47;30001;982;1859;-62
2022/04/23 00:13:58;;;;;;;;;;;;;;;9.55;68.59;95494.16;30001;982;1876;-61
2022/04/23 00:14:29;;;;;;;;;;;;;;;9.55;69.11;95489.56;30001;982;1859;-62
2022/04/23 00:15:00;;;;;;;;;;;;;;;9.54;69.49;95487.16;30001;983;1876;-62
2022/04/23 00:15:37;;;;;;;;;;;;;;;9.52;70.08;95492.09;30001;983;1880;-62
2022/04/23 00:16:08;;;;;;;;;;;;;;;9.50;69.33;95497.03;30001;983;1880;-60
2022/04/23 00:16:40;;;;;;;;;;;;;;;9.50;69.61;95486.22;30001;983;1880;-61
2022/04/23 00:17:12;;;;;;;;;;;;;;;9.49;69.10;95488.13;30001;983;1880;-63
2022/04/23 00:17:46;;;;;;;;;;;;;;;9.49;69.14;95490.03;30001;984;1880;-63
2022/04/23 00:18:18;;;;;;;;;;;;;;;9.49;69.56;95490.03;30001;983;1881;-63
2022/04/23 00:18:49;;;;;;;;;;;;;;;9.48;69.23;95483.81;30001;983;1881;-62
2022/04/23 00:19:20;;;;;;;;;;;;;;;9.48;69.50;95491.16;30001;982;1859;-62
2022/04/23 00:19:51;;;;;;;;;;;;;;;9.47;69.58;95493.06;30001;982;1876;-61
2022/04/23 00:20:24;;;;;;;;;;;;;;;9.45;70.08;95495.28;30001;982;1881;-61
2022/04/23 00:20:57;;;;;;;;;;;;;;;9.46;70.03;95496.09;30001;982;1881;-60
2022/04/23 00:21:28;;;;;;;;;;;;;;;9.46;69.80;95494.16;30001;982;1881;-60
2022/04/23 00:21:59;;;;;;;;;;;;;;;9.45;69.94;95492.56;30001;982;1881;-62
2022/04/23 00:22:30;;;;;;;;;;;;;;;9.43;70.33;95489.37;30001;983;1858;-61
2022/04/23 00:23:03;;;;;;;;;;;;;;;9.40;70.89;95498.16;30001;983;1876;-61
2022/04/23 00:23:34;;;;;;;;;;;;;;;9.37;70.83;95487.94;30001;983;1880;-62
2022/04/23 00:24:06;;;;;;;;;;;;;;;9.37;70.16;95485.25;30001;986;1876;-60
2022/04/23 00:24:37;;;;;;;;;;;;;;;9.38;70.59;95493.06;30001;983;1880;-62
2022/04/23 00:25:09;;;;;;;;;;;;;;;9.38;70.09;95484.94;30001;983;1859;-62
2022/04/23 00:25:50;;;;;;;;;;;;;;;9.40;69.97;95498.94;30001;983;1854;-61
2022/04/23 00:26:22;;;;;;;;;;;;;;;9.43;70.00;95492.09;30001;983;1881;-61
2022/04/23 00:26:53;;;;;;;;;;;;;;;9.46;69.99;95493.38;30001;982;1881;-61
2022/04/23 00:27:24;;;;;;;;;;;;;;;9.47;70.02;95492.25;30001;982;1881;-63
2022/04/23 00:27:55;;;;;;;;;;;;;;;9.48;69.65;95504.69;30001;982;1881;-63
2022/04/23 00:28:25;;;;;;;;;;;;;;;9.49;69.78;95495.44;30001;982;1881;-62
2022/04/23 00:28:56;;;;;;;;;;;;;;;9.48;69.68;95491.94;30001;982;1881;-61
2022/04/23 00:29:29;;;;;;;;;;;;;;;9.50;69.60;95497.03;30001;982;1859;-64
2022/04/23 00:30:00;;;;;;;;;;;;;;;9.49;69.33;95496.25;30001;983;1854;-62
2022/04/23 00:30:31;;;;;;;;;;;;;;;9.50;69.52;95499.75;30001;983;1880;-61
2022/04/23 00:31:02;;;;;;;;;;;;;;;9.50;69.33;95499.75;30001;983;1880;-61
2022/04/23 00:31:33;;;;;;;;;;;;;;;9.50;69.33;95503.25;30001;983;1880;-60
2022/04/23 00:32:04;;;;;;;;;;;;;;;9.51;69.55;95504.84;30001;983;1880;-62
2022/04/23 00:32:35;;;;;;;;;;;;;;;9.50;70.19;95507.88;30001;983;1880;-62
2022/04/23 00:33:09;;;;;;;;;;;;;;;9.49;69.95;95500.84;30001;983;1880;-62
2022/04/23 00:33:41;;;;;;;;;;;;;;;9.49;70.20;95500.84;30001;983;1881;-61
2022/04/23 00:34:12;;;;;;;;;;;;;;;9.49;70.16;95506.28;30001;982;1881;-61
2022/04/23 00:34:44;;;;;;;;;;;;;;;9.49;69.67;95503.56;30001;982;1881;-61
2022/04/23 00:35:16;;;;;;;;;;;;;;;9.48;70.12;95504.69;30001;982;1859;-60
2022/04/23 00:35:49;;;;;;;;;;;;;;;9.48;70.21;95507.38;30001;982;1876;-62
2022/04/23 00:36:23;;;;;;;;;;;;;;;9.46;69.96;95502.28;30001;982;1859;-60
2022/04/23 00:36:54;;;;;;;;;;;;;;;9.47;70.37;95508.50;30001;983;1876;-64
2022/04/23 00:37:25;;;;;;;;;;;;;;;9.46;70.13;95506.91;30001;983;1880;-59
2022/04/23 00:37:57;;;;;;;;;;;;;;;9.49;70.00;95511.69;30001;983;1858;-61
2022/04/23 00:38:28;;;;;;;;;;;;;;;9.48;70.15;95507.38;30001;983;1876;-60
2022/04/23 00:38:59;;;;;;;;;;;;;;;9.48;69.98;95510.09;30001;983;1880;-61
2022/04/23 00:39:30;;;;;;;;;;;;;;;9.46;70.77;95509.63;30001;983;1880;-60
2022/04/23 00:40:07;;;;;;;;;;;;;;;9.45;70.20;95506.13;30001;983;1880;-61
2022/04/23 00:40:41;;;;;;;;;;;;;;;9.45;69.83;95513.44;30001;983;1880;-60
2022/04/23 00:41:43;;;;;;;;;;;;;;;9.46;69.99;95506.91;30001;983;1881;-62
2022/04/23 00:42:08;;;;;;;;;;;;;;;9.45;69.93;95510.72;30001;982;1859;-62
2022/04/23 00:42:51;;;;;;;;;;;;;;;9.45;70.10;95508.03;30001;982;1876;-61
2022/04/23 00:43:36;;;;;;;;;;;;;;;9.45;69.71;95505.31;30001;982;1881;-61
2022/04/23 00:44:07;;;;;;;;;;;;;;;9.44;70.27;95509.13;30001;983;1880;-63
2022/04/23 00:44:40;;;;;;;;;;;;;;;9.43;70.12;95504.84;30001;983;1782;-61
2022/04/23 00:45:11;;;;;;;;;;;;;;;9.43;70.40;95507.53;30001;983;1880;-61
2022/04/23 00:45:44;;;;;;;;;;;;;;;9.41;70.42;95511.37;30001;983;1880;-61
2022/04/23 00:46:15;;;;;;;;;;;;;;;9.41;70.31;95510.56;30001;983;1880;-61
2022/04/23 00:46:46;;;;;;;;;;;;;;;9.39;70.33;95508.19;30001;983;1880;-61
2022/04/23 00:47:20;;;;;;;;;;;;;;;9.39;70.26;95513.59;30001;983;1858;-62
2022/04/23 00:47:59;;;;;;;;;;;;;;;9.35;70.72;95507.25;30001;983;1876;-62
2022/04/23 00:48:30;;;;;;;;;;;;;;;9.36;70.52;95508.81;30001;983;1881;-62
2022/04/23 00:49:03;;;;;;;;;;;;;;;9.34;70.43;95511.06;30001;983;1881;-61
2022/04/23 00:49:34;;;;;;;;;;;;;;;9.33;70.34;95509.47;30001;982;1881;-62
2022/04/23 00:50:06;;;;;;;;;;;;;;;9.33;71.13;95509.47;30001;982;1859;-61
2022/04/23 00:50:36;;;;;;;;;;;;;;;9.31;70.77;95500.09;30001;982;1876;-60
2022/04/23 00:51:07;;;;;;;;;;;;;;;9.30;71.27;95502.00;30001;982;1859;-63
2022/04/23 00:51:41;;;;;;;;;;;;;;;9.30;71.05;95504.69;30001;982;1877;-61
2022/04/23 00:52:13;;;;;;;;;;;;;;;9.29;70.73;95503.09;30001;983;1858;-61
2022/04/23 00:52:44;;;;;;;;;;;;;;;9.30;70.97;95504.69;30001;983;1876;-62
2022/04/23 00:53:15;;;;;;;;;;;;;;;9.32;70.70;95507.88;30001;983;1880;-61
2022/04/23 00:53:47;;;;;;;;;;;;;;;9.32;71.92;95501.66;30001;983;1880;-60
2022/04/23 00:54:19;;;;;;;;;;;;;;;9.30;71.59;95507.41;30001;983;1880;-61
2022/04/23 00:54:50;;;;;;;;;;;;;;;9.28;71.19;95508.84;30001;983;1880;-61
2022/04/23 00:55:21;;;;;;;;;;;;;;;9.26;71.32;95503.75;30001;983;1880;-61
2022/04/23 00:55:53;;;;;;;;;;;;;;;9.26;71.30;95502.94;30001;983;1870;-62
2022/04/23 00:56:25;;;;;;;;;;;;;;;9.23;71.64;95504.37;30001;983;1881;-61
2022/04/23 00:56:58;;;;;;;;;;;;;;;9.22;71.56;95500.06;30001;982;1881;-61
2022/04/23 00:57:28;;;;;;;;;;;;;;;9.21;71.59;95501.19;30001;982;1859;-62
2022/04/23 00:58:00;;;;;;;;;;;;;;;9.19;71.57;95503.41;30001;982;1876;-61
2022/04/23 00:58:31;;;;;;;;;;;;;;;9.19;71.32;95511.53;30001;982;1881;-61
2022/04/23 00:59:08;;;;;;;;;;;;;;;9.17;71.59;95500.22;30001;982;1881;-62
2022/04/23 00:59:40;;;;;;;;;;;;;;;9.16;71.71;95503.25;30001;983;1880;-62
2022/04/23 01:00:12;;;;;;;;;;;;;;;9.14;71.49;95500.84;30001;983;1880;-61
2022/04/23 01:00:45;;;;;;;;;;;;;;;9.13;71.48;95498.47;30001;983;1858;-62
2022/04/23 01:01:16;;;;;;;;;;;;;;;9.12;71.91;95497.66;30001;983;1876;-61
2022/04/23 01:01:48;;;;;;;;;;;;;;;9.10;72.03;95501.78;30001;983;1881;-60
2022/04/23 01:02:22;;;;;;;;;;;;;;;9.07;72.37;95501.31;30001;983;1880;-61
2022/04/23 01:02:54;;;;;;;;;;;;;;;9.04;71.81;95498.44;30001;983;1881;-60
2022/04/23 01:03:25;;;;;;;;;;;;;;;9.04;72.04;95501.94;30001;957;1907;-63
2022/04/23 01:03:57;;;;;;;;;;;;;;;9.03;72.59;95499.56;30001;983;1839;-60
2022/04/23 01:04:30;;;;;;;;;;;;;;;9.01;72.88;95497.16;30001;982;1859;-61
2022/04/23 01:05:01;;;;;;;;;;;;;;;9.00;72.60;95495.59;30001;982;1876;-61
2022/04/23 01:05:32;;;;;;;;;;;;;;;9.00;72.71;95500.22;30001;982;1881;-61
2022/04/23 01:06:03;;;;;;;;;;;;;;;8.98;72.71;95502.44;30001;982;1881;-61
2022/04/23 01:06:35;;;;;;;;;;;;;;;8.96;72.64;95493.84;30001;986;1876;-60
2022/04/23 01:07:11;;;;;;;;;;;;;;;8.95;72.73;95492.25;30001;983;1880;-60
2022/04/23 01:07:45;;;;;;;;;;;;;;;8.94;72.66;95493.34;30001;983;1858;-61
2022/04/23 01:08:18;;;;;;;;;;;;;;;8.91;73.81;95492.09;30001;983;1876;-61
2022/04/23 01:08:52;;;;;;;;;;;;;;;8.89;74.11;95496.22;30001;983;1858;-62
2022/04/23 01:09:24;;;;;;;;;;;;;;;8.88;73.36;95491.91;30001;983;1854;-61
2022/04/23 01:09:57;;;;;;;;;;;;;;;8.87;73.02;95495.72;30001;983;1879;-61
2022/04/23 01:10:31;;;;;;;;;;;;;;;8.87;73.38;95495.72;30001;983;1881;-61
2022/04/23 01:11:02;;;;;;;;;;;;;;;8.87;73.98;95490.31;30001;982;1881;-64
2022/04/23 01:11:33;;;;;;;;;;;;;;;8.86;73.39;95491.44;30001;982;1859;-63
2022/04/23 01:12:06;;;;;;;;;;;;;;;8.86;73.73;95491.44;30001;982;1876;-60
2022/04/23 01:12:38;;;;;;;;;;;;;;;8.86;73.29;95488.72;30001;982;1881;-61
2022/04/23 01:13:10;;;;;;;;;;;;;;;8.88;73.15;95494.63;30001;982;1859;-62
2022/04/23 01:13:44;;;;;;;;;;;;;;;8.89;72.83;95493.50;30001;982;1877;-60
2022/04/23 01:14:16;;;;;;;;;;;;;;;8.89;72.88;95491.59;30001;982;1881;-61
2022/04/23 01:15:04;;;;;;;;;;;;;;;8.90;73.19;95492.41;30001;983;1880;-60
2022/04/23 01:15:34;;;;;;;;;;;;;;;8.91;72.78;95502.09;30001;983;1880;-61
2022/04/23 01:16:07;;;;;;;;;;;;;;;8.91;72.90;95496.69;30001;983;1880;-60
2022/04/23 01:16:38;;;;;;;;;;;;;;;8.90;72.93;95486.97;30001;983;1880;-62
2022/04/23 01:17:10;;;;;;;;;;;;;;;8.92;73.00;95492.88;30001;983;1859;-61
2022/04/23 01:17:42;;;;;;;;;;;;;;;8.92;73.07;95492.88;30001;983;1850;-61
2022/04/23 01:18:14;;;;;;;;;;;;;;;8.92;72.98;95499.09;30001;983;1876;-60
2022/04/23 01:18:45;;;;;;;;;;;;;;;8.93;72.96;95492.56;30001;982;1876;-61
2022/04/23 01:19:19;;;;;;;;;;;;;;;8.93;73.40;95489.06;30001;982;1876;-60
2022/04/23 01:19:50;;;;;;;;;;;;;;;8.93;73.56;95491.78;30001;982;1876;-61
2022/04/23 01:20:24;;;;;;;;;;;;;;;8.91;73.31;95497.50;30001;982;1877;-62
2022/04/23 01:21:02;;;;;;;;;;;;;;;8.92;72.91;95490.97;30001;982;1877;-61
2022/04/23 01:21:36;;;;;;;;;;;;;;;8.97;72.98;95495.44;30001;982;1855;-61
2022/04/23 01:22:08;;;;;;;;;;;;;;;8.98;73.12;95487.00;30001;983;1871;-61
2022/04/23 01:22:40;;;;;;;;;;;;;;;9.00;72.79;95484.00;30001;983;1876;-62
2022/04/23 01:23:11;;;;;;;;;;;;;;;9.02;72.82;95487.16;30001;983;1876;-62
2022/04/23 01:23:44;;;;;;;;;;;;;;;9.08;73.05;95485.88;30001;983;1854;-61
2022/04/23 01:24:15;;;;;;;;;;;;;;;9.10;72.89;95483.66;30001;983;1872;-60
2022/04/23 01:24:50;;;;;;;;;;;;;;;9.10;72.93;95480.94;30001;983;1876;-61
2022/04/23 01:25:23;;;;;;;;;;;;;;;9.07;73.46;95484.28;30001;983;1876;-61
2022/04/23 01:25:54;;;;;;;;;;;;;;;9.05;73.18;95483.81;30001;983;1876;-63
2022/04/23 01:26:27;;;;;;;;;;;;;;;9.04;73.06;95485.72;30001;982;1876;-63
2022/04/23 01:26:59;;;;;;;;;;;;;;;9.04;72.68;95482.22;30001;982;1876;-62
2022/04/23 01:27:30;;;;;;;;;;;;;;;9.03;72.95;95486.81;30001;982;1877;-62
2022/04/23 01:28:02;;;;;;;;;;;;;;;9.01;73.54;95480.13;30001;982;1877;-60
2022/04/23 01:28:34;;;;;;;;;;;;;;;9.00;73.69;95476.66;30001;982;1877;-60
2022/04/23 01:29:05;;;;;;;;;;;;;;;8.98;73.86;95472.69;30001;982;1855;-61
2022/04/23 01:29:39;;;;;;;;;;;;;;;8.95;73.88;95479.53;30001;983;1848;-61
2022/04/23 01:30:10;;;;;;;;;;;;;;;8.95;73.85;95481.44;30001;983;1876;-61
2022/04/23 01:30:41;;;;;;;;;;;;;;;8.92;74.25;95479.34;30001;983;1876;-62
2022/04/23 01:31:11;;;;;;;;;;;;;;;8.90;74.59;95476.16;30001;983;1854;-61
2022/04/23 01:31:42;;;;;;;;;;;;;;;8.89;74.12;95477.28;30001;983;1872;-61
2022/04/23 01:32:13;;;;;;;;;;;;;;;8.89;73.56;95479.97;30001;983;1780;-60
2022/04/23 01:32:45;;;;;;;;;;;;;;;8.91;73.66;95475.06;30001;983;1876;-62
2022/04/23 01:33:16;;;;;;;;;;;;;;;8.93;73.30;95475.53;30001;983;1876;-62
2022/04/23 01:33:49;;;;;;;;;;;;;;;8.95;73.23;95473.31;30001;972;1886;-61
2022/04/23 01:34:29;;;;;;;;;;;;;;;8.97;73.15;95471.09;30001;982;1876;-63
2022/04/23 01:35:00;;;;;;;;;;;;;;;8.99;73.09;95476.97;30001;982;1855;-60
2022/04/23 01:35:31;;;;;;;;;;;;;;;8.99;73.02;95476.97;30001;982;1872;-62
2022/04/23 01:36:05;;;;;;;;;;;;;;;8.98;73.35;95476.19;30001;982;1877;-60
2022/04/23 01:36:38;;;;;;;;;;;;;;;8.96;72.91;95472.19;30001;982;1877;-61
2022/04/23 01:37:12;;;;;;;;;;;;;;;8.97;73.20;95476.50;30001;983;1876;-61
2022/04/23 01:37:43;;;;;;;;;;;;;;;8.97;72.96;95476.50;30001;983;1876;-62
2022/04/23 01:38:14;;;;;;;;;;;;;;;8.96;73.24;95488.44;30001;983;1876;-61
2022/04/23 01:38:45;;;;;;;;;;;;;;;8.94;73.23;95479.84;30001;983;1876;-61
2022/04/23 01:39:18;;;;;;;;;;;;;;;8.93;73.61;95478.25;30001;983;1854;-62
2022/04/23 01:39:48;;;;;;;;;;;;;;;8.90;73.61;95474.25;30001;983;1872;-61
2022/04/23 01:40:19;;;;;;;;;;;;;;;8.90;73.57;95478.88;30001;983;1876;-60
2022/04/23 01:40:51;;;;;;;;;;;;;;;8.89;73.53;95479.97;30001;983;1876;-62
2022/04/23 01:41:23;;;;;;;;;;;;;;;8.87;74.40;95484.91;30001;982;1876;-61
2022/04/23 01:41:54;;;;;;;;;;;;;;;8.86;74.27;95477.91;30001;982;1876;-62
2022/04/23 01:42:25;;;;;;;;;;;;;;;8.83;74.49;95483.94;30001;982;1855;-60
2022/04/23 01:42:57;;;;;;;;;;;;;;;8.82;74.24;95482.34;30001;982;1872;-62
2022/04/23 01:43:27;;;;;;;;;;;;;;;8.81;74.24;95488.87;30001;982;1855;-60
2022/04/23 01:44:00;;;;;;;;;;;;;;;8.81;73.90;95480.75;30001;983;1849;-61
2022/04/23 01:44:31;;;;;;;;;;;;;;;8.80;74.23;95479.16;30001;983;1876;-61
2022/04/23 01:45:05;;;;;;;;;;;;;;;8.79;73.87;95482.97;30001;983;1876;-60
2022/04/23 01:45:37;;;;;;;;;;;;;;;8.78;73.88;95481.37;30001;983;1876;-62
2022/04/23 01:46:07;;;;;;;;;;;;;;;8.77;74.23;95479.78;30001;983;1876;-61
2022/04/23 01:46:38;;;;;;;;;;;;;;;8.76;74.33;95478.19;30001;983;1876;-61
2022/04/23 01:47:09;;;;;;;;;;;;;;;8.73;74.58;95483.13;30001;983;1854;-63
2022/04/23 01:47:40;;;;;;;;;;;;;;;8.72;74.39;95478.81;30001;986;1872;-61
2022/04/23 01:48:14;;;;;;;;;;;;;;;8.71;74.46;95481.84;30001;983;1876;-61
2022/04/23 01:48:49;;;;;;;;;;;;;;;8.70;74.85;95483.75;30001;982;1876;-61
2022/04/23 01:49:20;;;;;;;;;;;;;;;8.69;74.54;95478.66;30001;982;1876;-62
2022/04/23 01:49:52;;;;;;;;;;;;;;;8.68;74.76;95480.56;30001;982;1876;-62
2022/04/23 01:50:24;;;;;;;;;;;;;;;8.67;74.66;95481.66;30001;982;1876;-61
2022/04/23 01:50:55;;;;;;;;;;;;;;;8.67;75.14;95480.87;30001;982;1877;-62
2022/04/23 01:51:27;;;;;;;;;;;;;;;8.65;75.34;95483.94;30001;983;1876;-61
2022/04/23 01:51:59;;;;;;;;;;;;;;;8.62;75.03;95478.34;30001;983;1876;-62
2022/04/23 01:52:31;;;;;;;;;;;;;;;8.61;74.86;95482.97;30001;983;1854;-60
2022/04/23 01:53:05;;;;;;;;;;;;;;;8.60;75.62;95478.66;30001;983;1850;-62
2022/04/23 01:53:39;;;;;;;;;;;;;;;8.59;75.06;95485.19;30001;983;1876;-63
2022/04/23 01:54:10;;;;;;;;;;;;;;;8.58;75.20;95489.00;30001;983;1876;-62
2022/04/23 01:54:40;;;;;;;;;;;;;;;8.55;75.34;95478.81;30001;983;1876;-61
2022/04/23 01:55:11;;;;;;;;;;;;;;;8.53;75.74;95491.84;30001;983;1876;-62
2022/04/23 01:55:45;;;;;;;;;;;;;;;8.51;75.33;95485.94;30001;983;1854;-61
2022/04/23 01:56:16;;;;;;;;;;;;;;;8.50;75.32;95492.47;30001;982;1872;-61
2022/04/23 01:56:47;;;;;;;;;;;;;;;8.49;75.41;95485.44;30001;982;1854;-63
2022/04/23 01:57:17;;;;;;;;;;;;;;;8.49;75.97;95490.84;30001;982;1872;-63
2022/04/23 01:57:49;;;;;;;;;;;;;;;8.47;75.80;95493.06;30001;982;1876;-62
2022/04/23 01:58:24;;;;;;;;;;;;;;;8.45;76.18;95495.28;30001;982;1877;-61
2022/04/23 01:58:55;;;;;;;;;;;;;;;8.40;76.73;95490.03;30001;983;1876;-62
2022/04/23 01:59:26;;;;;;;;;;;;;;;8.37;76.93;95496.06;30001;983;1876;-61
2022/04/23 01:59:59;;;;;;;;;;;;;;;8.31;76.84;95491.91;30001;983;1876;-63
2022/04/23 02:00:30;;;;;;;;;;;;;;;8.30;76.47;95488.41;30001;983;1876;-62
2022/04/23 02:01:02;;;;;;;;;;;;;;;8.29;76.55;95492.19;30001;983;1876;-61
2022/04/23 02:01:36;;;;;;;;;;;;;;;8.28;76.56;95496.00;30001;983;1854;-62
2022/04/23 02:02:07;;;;;;;;;;;;;;;8.26;77.10;95502.84;30001;983;1850;-62
2022/04/23 02:02:41;;;;;;;;;;;;;;;8.22;77.48;95491.84;30001;983;1876;-62
2022/04/23 02:03:11;;;;;;;;;;;;;;;8.18;77.95;95490.88;30001;983;1876;-62
2022/04/23 02:03:43;;;;;;;;;;;;;;;8.18;77.57;95490.06;30001;983;1876;-62
2022/04/23 02:04:15;;;;;;;;;;;;;;;8.17;77.18;95489.28;30001;982;1876;-63
2022/04/23 02:04:45;;;;;;;;;;;;;;;8.18;76.97;95493.56;30001;982;1876;-62
2022/04/23 02:05:16;;;;;;;;;;;;;;;8.20;77.32;95493.28;30001;982;1876;-63
2022/04/23 02:05:49;;;;;;;;;;;;;;;8.21;77.31;95500.25;30001;982;1877;-61
2022/04/23 02:06:19;;;;;;;;;;;;;;;8.20;77.02;95498.66;30001;983;1854;-61
2022/04/23 02:06:50;;;;;;;;;;;;;;;8.21;76.88;95492.16;30001;983;1871;-61
2022/04/23 02:07:21;;;;;;;;;;;;;;;8.21;77.02;95498.38;30001;983;1876;-61
2022/04/23 02:07:52;;;;;;;;;;;;;;;8.22;77.38;95491.84;30001;983;1876;-62
2022/04/23 02:08:23;;;;;;;;;;;;;;;8.22;77.59;95504.56;30001;983;1854;-61
2022/04/23 02:08:56;;;;;;;;;;;;;;;8.20;77.75;95502.16;30001;983;1872;-62
2022/04/23 02:09:27;;;;;;;;;;;;;;;8.19;77.59;95497.06;30001;983;1876;-62
2022/04/23 02:09:57;;;;;;;;;;;;;;;8.17;77.26;95499.28;30001;983;1876;-63
2022/04/23 02:10:29;;;;;;;;;;;;;;;8.17;77.05;95504.69;30001;983;1876;-61
2022/04/23 02:11:00;;;;;;;;;;;;;;;8.18;77.13;95500.88;30001;983;1854;-61
2022/04/23 02:11:31;;;;;;;;;;;;;;;8.16;78.01;95503.09;30001;982;1850;-61
2022/04/23 02:12:03;;;;;;;;;;;;;;;8.13;78.13;95498.31;30001;982;1876;-62
2022/04/23 02:12:34;;;;;;;;;;;;;;;8.11;77.95;95505.94;30001;982;1877;-61
2022/04/23 02:13:06;;;;;;;;;;;;;;;8.08;77.93;95494.63;30001;982;1877;-61
2022/04/23 02:13:38;;;;;;;;;;;;;;;8.06;77.83;95494.16;30001;982;1855;-62
2022/04/23 02:14:09;;;;;;;;;;;;;;;8.05;78.25;95497.97;30001;983;1871;-61
2022/04/23 02:14:41;;;;;;;;;;;;;;;8.03;78.17;95499.38;30001;983;1876;-62
2022/04/23 02:15:16;;;;;;;;;;;;;;;8.01;78.12;95496.19;30001;983;1876;-62
2022/04/23 02:15:47;;;;;;;;;;;;;;;8.00;77.55;95495.38;30001;983;1761;-62
2022/04/23 02:16:18;;;;;;;;;;;;;;;8.00;78.08;95492.69;30001;983;1850;-62
2022/04/23 02:16:49;;;;;;;;;;;;;;;8.01;77.82;95496.97;30001;983;1800;-61
2022/04/23 02:17:21;;;;;;;;;;;;;;;8.01;77.64;95488.87;30001;983;1876;-62
2022/04/23 02:17:52;;;;;;;;;;;;;;;8.01;77.81;95499.69;30001;983;1876;-63
2022/04/23 02:18:25;;;;;;;;;;;;;;;8.00;78.18;95489.19;30001;982;1876;-62
2022/04/23 02:18:57;;;;;;;;;;;;;;;7.99;78.53;95493.00;30001;982;1876;-60
2022/04/23 02:19:28;;;;;;;;;;;;;;;7.98;78.35;95494.91;30001;982;1876;-62
2022/04/23 02:20:06;;;;;;;;;;;;;;;7.97;78.25;95492.53;30001;960;1799;-61
2022/04/23 02:20:37;;;;;;;;;;;;;;;7.94;79.22;95493.94;30001;982;1855;-63
2022/04/23 02:21:07;;;;;;;;;;;;;;;7.93;78.47;95500.47;30001;982;1850;-61
2022/04/23 02:21:38;;;;;;;;;;;;;;;7.93;78.23;95494.25;30001;983;1876;-61
2022/04/23 02:22:09;;;;;;;;;;;;;;;7.94;78.36;95498.56;30001;983;1876;-61
2022/04/23 02:22:41;;;;;;;;;;;;;;;7.92;78.19;95488.06;30001;983;1876;-62
2022/04/23 02:23:11;;;;;;;;;;;;;;;7.92;78.25;95488.06;30001;983;1876;-62
2022/04/23 02:23:43;;;;;;;;;;;;;;;7.94;78.15;95493.94;30001;983;1876;-61
2022/04/23 02:24:15;;;;;;;;;;;;;;;7.94;78.11;95491.25;30001;983;1876;-61
2022/04/23 02:24:46;;;;;;;;;;;;;;;7.95;78.20;95492.84;30001;983;1876;-63
2022/04/23 02:25:19;;;;;;;;;;;;;;;7.94;78.54;95488.53;30001;983;1876;-62
2022/04/23 02:25:50;;;;;;;;;;;;;;;7.95;78.13;95486.66;30001;958;1800;-61
2022/04/23 02:26:21;;;;;;;;;;;;;;;7.93;78.07;95484.25;30001;982;1854;-62
2022/04/23 02:26:52;;;;;;;;;;;;;;;7.93;78.55;95492.34;30001;982;1872;-61
2022/04/23 02:27:23;;;;;;;;;;;;;;;7.92;78.35;95482.66;30001;982;1877;-61
2022/04/23 02:27:54;;;;;;;;;;;;;;;7.92;78.33;95482.66;30001;982;1877;-62
2022/04/23 02:28:28;;;;;;;;;;;;;;;7.92;78.46;95482.66;30001;982;1877;-62
2022/04/23 02:28:59;;;;;;;;;;;;;;;7.91;78.77;95486.47;30001;983;1876;-61
2022/04/23 02:29:29;;;;;;;;;;;;;;;7.91;78.67;95481.06;30001;983;1876;-63
2022/04/23 02:30:00;;;;;;;;;;;;;;;7.90;78.42;95484.88;30001;983;1876;-61
2022/04/23 02:30:34;;;;;;;;;;;;;;;7.90;79.01;95484.06;30001;983;1876;-62
2022/04/23 02:31:06;;;;;;;;;;;;;;;7.91;78.37;95482.97;30001;983;1876;-62
2022/04/23 02:31:37;;;;;;;;;;;;;;;7.91;78.21;95475.66;30001;983;1854;-62
2022/04/23 02:32:08;;;;;;;;;;;;;;;7.91;78.79;95489.16;30001;983;1872;-62
2022/04/23 02:32:39;;;;;;;;;;;;;;;7.90;79.16;95481.37;30001;983;1876;-62
2022/04/23 02:33:11;;;;;;;;;;;;;;;7.87;79.52;95482.78;30001;982;1876;-63
2022/04/23 02:33:46;;;;;;;;;;;;;;;7.86;79.52;95483.88;30001;982;1877;-61
2022/04/23 02:34:18;;;;;;;;;;;;;;;7.84;79.84;95483.41;30001;982;1876;-61
2022/04/23 02:34:48;;;;;;;;;;;;;;;7.84;79.37;95483.41;30001;982;1876;-61
2022/04/23 02:35:20;;;;;;;;;;;;;;;7.83;79.39;95479.09;30001;982;1877;-61
2022/04/23 02:35:51;;;;;;;;;;;;;;;7.82;79.50;95485.62;30001;982;1877;-61
2022/04/23 02:36:22;;;;;;;;;;;;;;;7.79;80.32;95483.53;30001;982;1877;-63
2022/04/23 02:36:53;;;;;;;;;;;;;;;7.78;80.16;95486.53;30001;983;1854;-62
2022/04/23 02:37:26;;;;;;;;;;;;;;;7.76;79.87;95481.44;30001;983;1871;-62
2022/04/23 02:38:00;;;;;;;;;;;;;;;7.76;79.90;95473.34;30001;983;1876;-63
2022/04/23 02:38:31;;;;;;;;;;;;;;;7.77;79.72;95480.34;30001;983;1876;-61
2022/04/23 02:39:02;;;;;;;;;;;;;;;7.79;79.64;95477.31;30001;983;1876;-62
2022/04/23 02:39:33;;;;;;;;;;;;;;;7.78;79.54;95471.13;30001;983;1876;-61
2022/04/23 02:40:06;;;;;;;;;;;;;;;7.78;79.42;95476.53;30001;983;1876;-61
2022/04/23 02:40:40;;;;;;;;;;;;;;;7.79;79.37;95477.31;30001;983;1876;-62
2022/04/23 02:41:11;;;;;;;;;;;;;;;7.80;79.07;95479.72;30001;982;1876;-62
2022/04/23 02:41:42;;;;;;;;;;;;;;;7.80;79.24;95477.03;30001;982;1876;-62
2022/04/23 02:42:13;;;;;;;;;;;;;;;7.81;79.38;95480.50;30001;982;1855;-61
2022/04/23 02:42:44;;;;;;;;;;;;;;;7.81;79.04;95481.31;30001;982;1872;-61
2022/04/23 02:43:15;;;;;;;;;;;;;;;7.80;79.27;95479.72;30001;982;1877;-61
2022/04/23 02:43:46;;;;;;;;;;;;;;;7.80;79.15;95485.12;30001;982;1877;-62
2022/04/23 02:44:17;;;;;;;;;;;;;;;7.80;79.72;95485.12;30001;983;1876;-63
2022/04/23 02:44:50;;;;;;;;;;;;;;;7.79;79.58;95480.81;30001;983;1876;-61
2022/04/23 02:45:21;;;;;;;;;;;;;;;7.79;79.42;95482.72;30001;983;1876;-63
2022/04/23 02:45:53;;;;;;;;;;;;;;;7.78;79.21;95476.53;30001;983;1876;-62
2022/04/23 02:46:24;;;;;;;;;;;;;;;7.78;80.12;95484.62;30001;983;1876;-63
2022/04/23 02:46:55;;;;;;;;;;;;;;;7.78;80.52;95481.13;30001;983;1854;-61
2022/04/23 02:47:26;;;;;;;;;;;;;;;7.75;80.10;95490.66;30001;983;1850;-62
2022/04/23 02:47:57;;;;;;;;;;;;;;;7.75;79.94;95482.53;30001;983;1779;-62
2022/04/23 02:48:28;;;;;;;;;;;;;;;7.74;79.97;95476.34;30001;982;1876;-61
2022/04/23 02:49:00;;;;;;;;;;;;;;;7.73;79.84;95477.44;30001;982;1876;-61
2022/04/23 02:49:31;;;;;;;;;;;;;;;7.74;79.80;95486.34;30001;982;1876;-62
2022/04/23 02:50:01;;;;;;;;;;;;;;;7.74;79.89;95483.66;30001;982;1877;-62
2022/04/23 02:50:34;;;;;;;;;;;;;;;7.73;80.21;95484.75;30001;982;1877;-61
2022/04/23 02:51:05;;;;;;;;;;;;;;;7.70;80.12;95479.97;30001;983;1876;-62
2022/04/23 02:51:37;;;;;;;;;;;;;;;7.69;79.97;95489.16;30001;983;1854;-63
2022/04/23 02:52:07;;;;;;;;;;;;;;;7.66;80.73;95489.78;30001;983;1871;-63
2022/04/23 02:52:42;;;;;;;;;;;;;;;7.62;81.14;95486.91;30001;983;1854;-62
2022/04/23 02:53:13;;;;;;;;;;;;;;;7.59;81.21;95484.03;30001;983;1871;-62
2022/04/23 02:53:44;;;;;;;;;;;;;;;7.58;80.63;95485.16;30001;983;1876;-61